Shanksville, PA (15560)

12:38 PM EDT on March 30, 2017 (GMT -0400)
GAHAGEN MTN | | Change Station

Elev 2533 ft 40.06 °N, 78.80 °W | Updated 29 seconds ago

Mostly Cloudy
Mostly Cloudy
44.6 °F
Feels Like 43 °F
N
4.0
Wind Variable Wind from South

Today
High -- | Low -- °F
--% Chance of Precip.
Yesterday
High -- | Low -- °F
Precip. -- in
Pressure 30.07 in
Visibility 10.0 miles
Clouds Few 7500 ft
Windchill 43 °F
Dew Point 29 °F
Humidity 55%
Rainfall 0.00 in
Snow Depth Not available.
7:02 AM 7:38 PM
Waxing Crescent, 9% visible
METAR KJST 301554Z AUTO 14013G19KT 10SM FEW075 06/M02 A3004 RMK AO2 SLP183 T00561017
Pressure 30.07 in
Visibility 10.0 miles
Clouds Few 7500 ft
Windchill 43 °F
Dew Point 29 °F
Humidity 55%
Rainfall 0.00 in
Snow Depth Not available.
7:02 AM 7:38 PM
Waxing Crescent, 9% visible
METAR KJST 301554Z AUTO 14013G19KT 10SM FEW075 06/M02 A3004 RMK AO2 SLP183 T00561017

Get Severe Weather Alerts

Thanks for signing up!

Be on the lookout for a verification email in your inbox.

You'll start receiving the daily forecast at 8 AM.

×

10-Day Weather Forecast

Almanac

Astronomy

Mar. 30, 2017 Rise Set
Actual Time
Civil Twilight
Nautical Twilight
Astronomical Twilight
Moon
Length of Visible Light
Length of Day
Tomorrow will be .
, % of the Moon is Illuminated

Today's Extremes

State Highs State Lows

Community

WunderPhotos

Upload Photos

1,962,540 photos uploaded!

WunderBlog® & News

Nearby

Air Quality

  Air Quality AQ Index Pollutant
Not available.

Snow Depth

Station Depth Elevation

Earthquake Activity

City Distance Mag. Time & Date
Minimum magnitude displayed is 2.5.

Earthquake Activity

City Distance Mag. Time & Date
Minimum magnitude displayed is 2.5.

Coastal Water Temperatures

Place Temperature

Stations

Nearby Weather Stations

Station Location Temp. Windchill Dew Point Humidity Wind Precip. Elev Updated Type
                   

Watches & Warnings

There are currently no watches in effect.